Terminal Aerodrome Forecast
Issued by NWS

Home | Current Version | Previous Version | Text Only | Print | Product List | Glossary On
Versions: 1 2 3 4 5 6 7 8 9 10 11 12 13 14 15 16 17 18 19 20 21 22
000
FTUS46 KMFR 272340
TAFOTH
TAF
KOTH 272340Z 2800/2824 30011KT P6SM VCSH BKN017 OVC045
     FM280400 33005KT P6SM SCT025 BKN040
     FM280900 10004KT P6SM FEW015 SCT025 SCT040
     FM281800 35007KT P6SM SKC
     FM282100 35014G20KT P6SM SKC=

USA.gov is the U.S. government's official web portal to all federal, state and local government web resources and services.